createdAt,value
2017-12-19T00:04:01.726Z,83.69
2017-12-19T00:06:30.766Z,83.48
2017-12-19T00:09:03.059Z,83.48
2017-12-19T00:11:45.979Z,83.80
2017-12-19T00:14:15.026Z,84.14
2017-12-19T00:16:51.253Z,84.10
2017-12-19T00:19:20.316Z,83.20
2017-12-19T00:21:53.562Z,83.56
2017-12-19T00:24:35.162Z,83.29
2017-12-19T00:27:08.515Z,82.98
2017-12-19T00:29:37.563Z,83.79
2017-12-19T00:32:09.490Z,82.83
2017-12-19T00:34:38.760Z,82.48
2017-12-19T00:37:07.775Z,82.91
2017-12-19T00:42:13.646Z,82.48
2017-12-19T00:44:42.686Z,82.62
2017-12-19T00:49:52.878Z,82.66
2017-12-19T00:52:31.918Z,83.82
2017-12-19T00:55:01.016Z,83.38
2017-12-19T00:57:40.931Z,83.37
2017-12-19T01:00:09.974Z,83.78
2017-12-19T01:05:21.957Z,83.19
2017-12-19T01:07:51.008Z,83.61
2017-12-19T01:12:55.324Z,82.70
2017-12-19T01:17:59.550Z,83.06
2017-12-19T01:20:28.594Z,83.20
2017-12-19T01:22:57.667Z,82.94
2017-12-19T01:25:37.176Z,83.07
2017-12-19T01:28:06.249Z,82.38
2017-12-19T01:30:35.281Z,83.00
2017-12-19T01:33:04.338Z,82.89
2017-12-19T01:35:33.382Z,83.24
2017-12-19T01:38:02.463Z,83.56
2017-12-19T01:40:32.478Z,83.09
2017-12-19T01:43:01.515Z,83.09
2017-12-19T01:45:48.290Z,83.25
2017-12-19T01:50:53.486Z,84.55
2017-12-19T01:53:26.324Z,84.05
2017-12-19T01:55:55.378Z,83.79
2017-12-19T01:58:38.842Z,83.76
2017-12-19T02:01:07.886Z,84.19
2017-12-19T02:03:40.726Z,83.94
2017-12-19T02:06:09.817Z,84.82
2017-12-19T02:08:38.854Z,84.59
2017-12-19T02:11:07.954Z,85.06
2017-12-19T02:13:50.030Z,84.69
2017-12-19T02:18:56.240Z,84.93
2017-12-19T02:24:03.485Z,85.66
2017-12-19T02:26:32.521Z,85.47
2017-12-19T02:29:01.562Z,84.78
2017-12-19T02:31:36.301Z,85.40
2017-12-19T02:34:05.354Z,85.38
2017-12-19T02:36:42.211Z,84.62
2017-12-19T02:39:22.970Z,85.75
2017-12-19T02:41:52.023Z,87.01
2017-12-19T02:44:21.116Z,86.50
2017-12-19T02:46:50.169Z,85.94
2017-12-19T02:49:22.361Z,85.92
2017-12-19T02:51:51.422Z,86.15
2017-12-19T02:54:20.554Z,86.50
2017-12-19T03:02:01.226Z,86.24
2017-12-19T03:04:30.265Z,86.34
2017-12-19T03:06:59.301Z,86.32
2017-12-19T03:09:30.322Z,86.05
2017-12-19T03:11:59.386Z,85.99
2017-12-19T03:14:28.406Z,86.24
2017-12-19T03:16:57.450Z,85.96
2017-12-19T03:19:26.511Z,85.57
2017-12-19T03:21:55.561Z,85.81
2017-12-19T03:24:24.615Z,85.66
2017-12-19T03:26:54.607Z,84.83
2017-12-19T03:29:23.635Z,84.81
2017-12-19T03:31:52.702Z,84.19
2017-12-19T03:34:23.674Z,83.75
2017-12-19T03:36:52.725Z,83.55
2017-12-19T03:42:04.585Z,83.25
2017-12-19T03:44:35.586Z,82.53
2017-12-19T03:47:04.706Z,82.84
2017-12-19T03:49:33.747Z,82.71
2017-12-19T03:52:02.819Z,82.65
2017-12-19T03:54:31.863Z,82.45
2017-12-19T03:57:00.956Z,82.70
2017-12-19T03:59:30.910Z,82.50
2017-12-19T04:02:00.092Z,82.90
2017-12-19T04:04:31.035Z,82.71
2017-12-19T04:07:00.101Z,82.38
2017-12-19T04:09:30.064Z,82.62
2017-12-19T04:11:59.109Z,82.93
2017-12-19T04:17:03.336Z,82.76
2017-12-19T04:22:35.570Z,82.97
2017-12-19T04:25:04.618Z,83.21
2017-12-19T04:27:34.698Z,83.03
2017-12-19T04:30:03.757Z,82.93
2017-12-19T04:32:40.134Z,83.22
2017-12-19T04:35:09.178Z,83.05
2017-12-19T04:37:40.211Z,83.24
2017-12-19T04:40:09.257Z,82.93
2017-12-19T04:42:49.567Z,82.81
2017-12-19T04:47:56.506Z,83.10
2017-12-19T04:50:29.638Z,83.72
2017-12-19T04:52:58.718Z,83.36
2017-12-19T04:55:49.314Z,83.44
2017-12-19T04:58:26.364Z,83.45
2017-12-19T05:00:55.408Z,82.80
2017-12-19T05:03:24.437Z,82.83
2017-12-19T05:05:54.438Z,82.17
2017-12-19T05:08:23.457Z,82.02
2017-12-19T05:10:52.498Z,82.50
2017-12-19T05:13:21.537Z,82.32
2017-12-19T05:15:50.591Z,82.55
2017-12-19T05:18:19.638Z,82.74
2017-12-19T05:20:48.686Z,82.75
2017-12-19T05:23:21.231Z,82.50
2017-12-19T05:25:50.261Z,82.37
2017-12-19T05:28:22.970Z,82.60
2017-12-19T05:30:52.018Z,82.37
2017-12-19T05:33:22.006Z,82.11
2017-12-19T05:35:51.062Z,81.67
2017-12-19T05:38:20.114Z,82.09
2017-12-19T05:40:49.170Z,82.25
2017-12-19T05:43:18.211Z,82.88
2017-12-19T05:45:48.222Z,82.91
2017-12-19T05:48:21.707Z,83.25
2017-12-19T05:50:51.024Z,83.45
2017-12-19T05:53:30.690Z,83.58
2017-12-19T05:56:00.650Z,83.67
2017-12-19T06:01:04.958Z,83.24
2017-12-19T06:08:50.435Z,83.69
2017-12-19T06:11:45.411Z,84.40
2017-12-19T06:14:14.442Z,83.85
2017-12-19T06:16:43.550Z,83.72
2017-12-19T06:19:16.221Z,84.80
2017-12-19T06:26:58.725Z,84.89
2017-12-19T06:29:31.551Z,85.19
2017-12-19T06:32:00.603Z,85.52
2017-12-19T06:37:08.807Z,83.91
2017-12-19T06:42:30.506Z,84.58
2017-12-19T06:44:59.565Z,84.39
2017-12-19T06:47:28.630Z,83.92
2017-12-19T06:49:57.678Z,84.13
2017-12-19T06:52:27.754Z,84.24
2017-12-19T06:54:56.846Z,84.00
2017-12-19T06:57:29.319Z,84.43
2017-12-19T06:59:58.392Z,83.67
2017-12-19T07:02:37.259Z,83.82
2017-12-19T07:05:06.325Z,83.62
2017-12-19T07:07:47.196Z,83.69
2017-12-19T07:12:57.604Z,83.98
2017-12-19T07:15:39.428Z,83.88
2017-12-19T07:18:08.494Z,83.41
2017-12-19T07:23:14.666Z,83.57
2017-12-19T07:25:51.559Z,84.79
2017-12-19T07:28:21.679Z,84.57
2017-12-19T07:30:50.764Z,85.11
2017-12-19T07:33:25.043Z,84.35
2017-12-19T07:35:58.139Z,84.42
2017-12-19T07:38:28.210Z,83.99
2017-12-19T07:40:57.310Z,83.44
2017-12-19T07:43:26.359Z,84.27
2017-12-19T07:48:33.303Z,83.74
2017-12-19T07:51:02.291Z,83.62
2017-12-19T07:53:31.321Z,83.76
2017-12-19T07:56:04.118Z,83.87
2017-12-19T07:58:33.163Z,83.86
2017-12-19T08:01:15.221Z,84.13
2017-12-19T08:03:44.302Z,84.25
2017-12-19T08:06:24.297Z,84.14
2017-12-19T08:08:57.229Z,84.42
2017-12-19T08:11:26.293Z,84.01
2017-12-19T08:14:00.798Z,84.52
2017-12-19T08:16:33.790Z,84.02
2017-12-19T08:19:06.282Z,83.66
2017-12-19T08:21:39.086Z,83.63
2017-12-19T08:24:11.840Z,83.82
2017-12-19T08:26:40.884Z,83.93
2017-12-19T08:31:45.104Z,83.42
2017-12-19T08:34:31.926Z,83.86
2017-12-19T08:37:02.000Z,83.77
2017-12-19T08:39:31.054Z,83.87
2017-12-19T08:42:31.815Z,83.66
2017-12-19T08:47:41.055Z,84.40
2017-12-19T08:50:10.087Z,83.93
2017-12-19T08:52:39.138Z,83.88
2017-12-19T08:55:10.078Z,84.35
2017-12-19T08:57:39.135Z,84.39
2017-12-19T09:00:10.123Z,83.44
2017-12-19T09:02:39.168Z,83.52
2017-12-19T09:05:08.223Z,83.33
2017-12-19T09:07:37.262Z,82.97
2017-12-19T09:12:43.163Z,82.25
2017-12-19T09:15:15.914Z,82.89
2017-12-19T09:17:45.012Z,83.56
2017-12-19T09:20:34.975Z,83.72
2017-12-19T09:25:47.156Z,84.45
2017-12-19T09:28:19.947Z,84.72
2017-12-19T09:30:50.023Z,84.13
2017-12-19T09:36:16.971Z,84.50
2017-12-19T09:38:46.021Z,84.48
2017-12-19T09:41:25.239Z,84.80
2017-12-19T09:46:32.705Z,82.96
2017-12-19T09:51:40.073Z,81.91
2017-12-19T09:54:10.054Z,82.67
2017-12-19T09:56:39.098Z,82.39
2017-12-19T09:59:10.054Z,81.87
2017-12-19T10:01:39.103Z,81.96
2017-12-19T10:04:10.050Z,82.31
2017-12-19T10:06:39.080Z,81.78
2017-12-19T10:09:24.818Z,81.30
2017-12-19T10:12:04.897Z,80.95
2017-12-19T10:14:33.942Z,81.53
2017-12-19T10:17:06.856Z,81.26
2017-12-19T10:19:36.822Z,81.85
2017-12-19T10:22:05.866Z,81.00
2017-12-19T10:24:34.917Z,80.91
2017-12-19T10:27:16.732Z,80.71
2017-12-19T10:29:45.769Z,80.74
2017-12-19T10:32:19.654Z,81.14
2017-12-19T10:34:48.682Z,80.80
2017-12-19T10:37:31.232Z,80.46
2017-12-19T10:40:31.596Z,79.43
2017-12-19T10:45:35.849Z,79.76
2017-12-19T10:48:26.581Z,80.23
2017-12-19T10:54:04.972Z,79.71
2017-12-19T10:56:35.396Z,78.71
2017-12-19T10:59:05.382Z,79.08
2017-12-19T11:01:35.515Z,78.91
2017-12-19T11:04:15.952Z,79.71
2017-12-19T11:06:45.003Z,79.13
2017-12-19T11:09:17.901Z,78.86
2017-12-19T11:11:46.938Z,78.75
2017-12-19T11:14:19.327Z,79.58
2017-12-19T11:16:48.369Z,79.14
2017-12-19T11:22:14.986Z,79.17
2017-12-19T11:24:44.024Z,79.77
2017-12-19T11:29:56.268Z,79.43
2017-12-19T11:32:31.747Z,78.91
2017-12-19T11:35:07.937Z,79.24
2017-12-19T11:37:37.873Z,78.47
2017-12-19T11:40:10.462Z,77.96
2017-12-19T11:42:40.450Z,78.52
2017-12-19T11:47:47.955Z,77.88
2017-12-19T11:50:31.808Z,76.42
2017-12-19T11:53:00.866Z,76.94
2017-12-19T11:55:31.079Z,76.60
2017-12-19T11:58:00.094Z,77.36
2017-12-19T12:00:31.079Z,76.22
2017-12-19T12:03:22.098Z,75.02
2017-12-19T12:06:14.322Z,75.94
2017-12-19T12:08:48.803Z,75.73
2017-12-19T12:11:32.166Z,72.75
2017-12-19T12:14:05.087Z,73.11
2017-12-19T12:16:34.133Z,73.68
2017-12-19T12:19:11.579Z,74.45
2017-12-19T12:21:40.634Z,73.90
2017-12-19T12:24:27.251Z,74.57
2017-12-19T12:26:56.323Z,75.42
2017-12-19T12:29:38.090Z,75.51
2017-12-19T12:32:29.374Z,75.29
2017-12-19T12:35:00.319Z,74.94
2017-12-19T12:37:31.277Z,75.65
2017-12-19T12:40:04.632Z,75.86
2017-12-19T12:42:34.695Z,75.59
2017-12-19T12:45:28.632Z,78.05
2017-12-19T12:50:34.682Z,77.86
2017-12-19T12:53:05.082Z,76.87
2017-12-19T12:55:34.144Z,75.86
2017-12-19T12:58:03.173Z,75.73
2017-12-19T13:00:33.151Z,76.17
2017-12-19T13:03:02.238Z,77.12
2017-12-19T13:05:36.460Z,76.98
2017-12-19T13:08:05.810Z,77.71
2017-12-19T13:10:38.634Z,78.37
2017-12-19T13:13:07.678Z,77.77
2017-12-19T13:15:44.336Z,76.91
2017-12-19T13:18:13.409Z,77.85
2017-12-19T13:20:42.445Z,78.51
2017-12-19T13:23:11.528Z,79.27
2017-12-19T13:25:42.455Z,79.03
2017-12-19T13:28:11.500Z,78.41
2017-12-19T13:30:43.627Z,78.19
2017-12-19T13:33:12.696Z,78.16
2017-12-19T13:35:53.491Z,78.11
2017-12-19T13:38:26.320Z,78.33
2017-12-19T13:40:56.253Z,78.35
2017-12-19T13:46:03.464Z,78.14
2017-12-19T13:48:33.430Z,78.03
2017-12-19T13:51:02.477Z,78.31
2017-12-19T13:56:09.750Z,78.04
2017-12-19T13:58:42.638Z,78.32
2017-12-19T14:01:11.678Z,79.06
2017-12-19T14:03:44.484Z,79.38
2017-12-19T14:06:13.530Z,79.44
2017-12-19T14:08:53.569Z,79.81
2017-12-19T14:11:26.381Z,80.08
2017-12-19T14:14:18.310Z,80.61
2017-12-19T14:19:30.061Z,79.95
2017-12-19T14:22:01.067Z,80.88
2017-12-19T14:24:30.119Z,81.41
2017-12-19T14:27:01.119Z,81.90
2017-12-19T14:29:45.138Z,82.44
2017-12-19T14:32:14.207Z,82.48
2017-12-19T14:35:04.210Z,82.63
2017-12-19T14:40:09.435Z,82.48
2017-12-19T14:42:38.475Z,82.57
2017-12-19T14:45:10.996Z,81.98
2017-12-19T14:47:40.038Z,81.99
2017-12-19T14:52:46.250Z,82.71
2017-12-19T14:55:16.166Z,83.26
2017-12-19T15:00:22.678Z,83.53
2017-12-19T15:02:55.521Z,82.98
2017-12-19T15:05:24.558Z,83.25
2017-12-19T15:07:57.160Z,82.89
2017-12-19T15:10:26.198Z,83.10
2017-12-19T15:16:08.664Z,83.27
2017-12-19T15:18:39.642Z,83.42
2017-12-19T15:21:09.602Z,83.14
2017-12-19T15:23:38.654Z,83.41
2017-12-19T15:26:08.632Z,83.72
2017-12-19T15:28:41.462Z,83.55
2017-12-19T15:34:06.547Z,84.06
2017-12-19T15:36:48.535Z,84.60
2017-12-19T15:39:17.561Z,84.49
2017-12-19T15:41:54.606Z,83.61
2017-12-19T15:47:02.952Z,84.14
2017-12-19T15:49:33.665Z,83.79
2017-12-19T15:52:32.763Z,83.70
2017-12-19T15:55:01.810Z,84.25
2017-12-19T15:57:32.794Z,84.15
2017-12-19T16:00:05.170Z,83.83
2017-12-19T16:02:34.225Z,84.46
2017-12-19T16:05:11.403Z,84.57
2017-12-19T16:07:40.454Z,85.41
2017-12-19T16:10:13.091Z,85.55
2017-12-19T16:12:44.131Z,85.16
2017-12-19T16:15:18.719Z,84.91
2017-12-19T16:17:47.754Z,85.00
2017-12-19T16:20:18.813Z,85.11
2017-12-19T16:22:48.923Z,84.51
2017-12-19T16:25:18.934Z,85.00
2017-12-19T16:27:48.891Z,84.34
2017-12-19T16:30:25.747Z,84.68
2017-12-19T16:32:54.883Z,84.53
2017-12-19T16:35:27.253Z,85.31
2017-12-19T16:38:01.155Z,84.84
2017-12-19T16:40:32.229Z,85.61
2017-12-19T16:43:32.390Z,84.96
2017-12-19T16:46:25.816Z,85.34
2017-12-19T16:48:54.870Z,85.07
2017-12-19T16:51:27.729Z,85.63
2017-12-19T16:54:00.494Z,86.15
2017-12-19T16:59:31.897Z,86.59
2017-12-19T17:02:19.802Z,87.35
2017-12-19T17:04:49.832Z,87.23
2017-12-19T17:10:09.978Z,86.20
2017-12-19T17:12:39.003Z,86.74
2017-12-19T17:15:08.074Z,86.86
2017-12-19T17:17:50.124Z,87.04
2017-12-19T17:20:32.339Z,86.66
2017-12-19T17:23:01.483Z,87.29
2017-12-19T17:25:54.626Z,87.06
2017-12-19T17:30:59.879Z,86.95
2017-12-19T17:36:08.279Z,87.24
2017-12-19T17:44:09.187Z,86.21
2017-12-19T17:49:15.361Z,85.93
2017-12-19T17:54:21.499Z,85.98
2017-12-19T17:56:54.274Z,85.50
2017-12-19T18:02:02.512Z,85.75
2017-12-19T18:04:53.394Z,85.22
2017-12-19T18:07:31.575Z,85.39
2017-12-19T18:10:00.642Z,85.05
2017-12-19T18:15:12.075Z,84.81
2017-12-19T18:17:41.109Z,84.82
2017-12-19T18:20:10.142Z,84.85
2017-12-19T18:22:39.203Z,85.15
2017-12-19T18:25:08.308Z,85.71
2017-12-19T18:30:22.547Z,85.20
2017-12-19T18:32:55.366Z,85.19
2017-12-19T18:35:28.184Z,85.24
2017-12-19T18:38:01.035Z,86.29
2017-12-19T18:40:30.094Z,86.04
2017-12-19T18:43:03.660Z,85.75
2017-12-19T18:45:32.702Z,85.78
2017-12-19T18:50:50.944Z,85.03
2017-12-19T18:53:20.660Z,85.09
2017-12-19T18:56:00.631Z,85.28
2017-12-19T18:58:29.691Z,85.45
2017-12-19T19:01:02.453Z,85.32
2017-12-19T19:03:31.495Z,84.69
2017-12-19T19:06:10.186Z,84.99
2017-12-19T19:11:20.184Z,85.06
2017-12-19T19:13:52.642Z,85.27
2017-12-19T19:16:21.713Z,85.29
2017-12-19T19:19:18.190Z,86.25
2017-12-19T19:21:47.238Z,85.96
2017-12-19T19:24:19.760Z,86.38
2017-12-19T19:26:48.811Z,86.01
2017-12-19T19:29:21.578Z,85.68
2017-12-19T19:34:28.854Z,85.54
2017-12-19T19:36:57.962Z,85.25
2017-12-19T19:39:26.958Z,84.88
2017-12-19T19:44:37.182Z,85.20
2017-12-19T19:49:45.404Z,85.42
2017-12-19T19:52:18.259Z,85.73
2017-12-19T19:54:47.388Z,85.58
2017-12-19T19:57:29.018Z,85.70
2017-12-19T19:59:58.098Z,85.52
2017-12-19T20:02:37.983Z,85.61
2017-12-19T20:07:44.190Z,85.56
2017-12-19T20:12:51.454Z,86.02
2017-12-19T20:15:22.410Z,85.92
2017-12-19T20:17:51.453Z,86.48
2017-12-19T20:20:22.465Z,86.16
2017-12-19T20:22:51.686Z,85.73
2017-12-19T20:25:20.768Z,84.95
2017-12-19T20:27:49.811Z,84.85
2017-12-19T20:30:18.882Z,84.96
2017-12-19T20:35:23.240Z,84.91
2017-12-19T20:37:52.306Z,84.50
2017-12-19T20:42:58.610Z,85.60
2017-12-19T20:45:30.642Z,85.87
2017-12-19T20:48:00.903Z,85.68
2017-12-19T20:50:29.982Z,85.78
2017-12-19T20:52:59.022Z,85.65
2017-12-19T20:55:28.136Z,87.04
2017-12-19T20:57:57.196Z,88.15
2017-12-19T21:00:26.344Z,88.08
2017-12-19T21:02:56.536Z,89.07
2017-12-19T21:05:25.596Z,88.81
2017-12-19T21:07:54.675Z,89.21
2017-12-19T21:10:23.751Z,89.31
2017-12-19T21:12:53.090Z,90.21
2017-12-19T21:15:22.130Z,90.26
2017-12-19T21:18:04.909Z,89.81
2017-12-19T21:20:33.929Z,89.35
2017-12-19T21:23:03.396Z,89.26
2017-12-19T21:25:32.507Z,89.81
2017-12-19T21:28:05.211Z,89.16
2017-12-19T21:30:39.912Z,89.02
2017-12-19T21:33:14.308Z,88.54
2017-12-19T21:35:47.338Z,88.86
2017-12-19T21:38:16.382Z,88.67
2017-12-19T21:40:55.901Z,88.39
2017-12-19T21:43:24.959Z,88.29
2017-12-19T21:45:56.008Z,88.43
2017-12-19T21:48:28.699Z,88.30
2017-12-19T21:50:58.671Z,87.80
2017-12-19T21:53:28.624Z,87.36
2017-12-19T21:56:04.906Z,87.75
2017-12-19T21:58:34.918Z,88.16
2017-12-19T22:01:07.736Z,88.10
2017-12-19T22:03:40.598Z,87.84
2017-12-19T22:06:09.679Z,88.11
2017-12-19T22:08:40.615Z,88.60
2017-12-19T22:11:09.659Z,88.47
2017-12-19T22:16:15.543Z,88.31
2017-12-19T22:18:45.489Z,88.45
2017-12-19T22:21:14.535Z,89.20
2017-12-19T22:23:43.579Z,89.23
2017-12-19T22:26:12.617Z,88.78
2017-12-19T22:28:41.698Z,88.89
2017-12-19T22:31:10.770Z,88.77
2017-12-19T22:33:39.843Z,88.36
2017-12-19T22:36:17.157Z,89.01
2017-12-19T22:38:46.193Z,89.50
2017-12-19T22:41:19.071Z,89.39
2017-12-19T22:46:39.464Z,88.38
2017-12-19T22:49:21.491Z,88.68
2017-12-19T22:51:51.391Z,88.84
2017-12-19T22:56:56.629Z,89.11
2017-12-19T22:59:25.683Z,88.50
2017-12-19T23:01:54.723Z,88.30
2017-12-19T23:04:23.773Z,88.31
2017-12-19T23:06:52.822Z,88.70
2017-12-19T23:11:59.176Z,88.96
2017-12-19T23:14:30.180Z,89.12
2017-12-19T23:16:59.254Z,89.82
2017-12-19T23:19:28.290Z,90.33
2017-12-19T23:21:57.322Z,89.82
2017-12-19T23:24:34.981Z,89.25
2017-12-19T23:29:41.206Z,89.38
2017-12-19T23:32:10.253Z,89.16
2017-12-19T23:34:40.298Z,88.93
2017-12-19T23:37:09.378Z,88.75
2017-12-19T23:39:38.541Z,88.82
2017-12-19T23:42:12.694Z,88.98
2017-12-19T23:44:41.734Z,88.47
2017-12-19T23:47:10.847Z,88.56
2017-12-19T23:49:39.906Z,88.53
2017-12-19T23:52:09.930Z,88.46
2017-12-19T23:54:40.976Z,88.56
2017-12-19T23:57:15.902Z,88.48
2017-12-19T23:59:50.056Z,88.57
